Terminal Aerodrome Forecast
Issued by NWS

Home | Current Version | Previous Version | Text Only | Print | Product List | Glossary On
Versions: 1 2 3 4 5 6 7 8 9 10 11 12 13 14 15
825
FTUS43 KGRB 231432 AAA
TAFMTW
TAF AMD
KMTW 231432Z 2315/2412 VRB03KT 1/2SM FG VV001
      TEMPO 2315/2316 3SM BR SCT001 SCT120
     FM231600 VRB03KT 5SM BR BKN019
     FM231800 VRB03KT 6SM BR BKN050
     FM231900 33006KT P6SM OVC080
     FM240500 31013G21KT 3SM RA OVC012=

USA.gov is the U.S. government's official web portal to all federal, state and local government web resources and services.